sensor_id;sensor_type;location;lat;lon;timestamp;P1;P2;P0
70197;PMS5003;57582;-34.876;138.628;2024-03-02T00:00:12;1.10;1.10;0.00
70197;PMS5003;57582;-34.876;138.628;2024-03-02T00:03:11;0.37;0.37;0.00
70197;PMS5003;57582;-34.876;138.628;2024-03-02T00:06:11;0.07;0.07;0.00
70197;PMS5003;57582;-34.876;138.628;2024-03-02T00:09:12;0.33;0.33;0.00
70197;PMS5003;57582;-34.876;138.628;2024-03-02T00:12:16;0.70;0.43;0.03
70197;PMS5003;57582;-34.876;138.628;2024-03-02T00:18:14;0.93;0.50;0.00
70197;PMS5003;57582;-34.876;138.628;2024-03-02T00:21:12;0.43;0.13;0.00
70197;PMS5003;57582;-34.876;138.628;2024-03-02T00:24:24;0.23;0.23;0.00
70197;PMS5003;57582;-34.876;138.628;2024-03-02T00:27:14;2.03;1.47;0.03
70197;PMS5003;57582;-34.876;138.628;2024-03-02T00:33:12;0.87;0.70;0.00
70197;PMS5003;57582;-34.876;138.628;2024-03-02T00:36:16;0.63;0.63;0.10
70197;PMS5003;57582;-34.876;138.628;2024-03-02T00:39:15;1.47;1.03;0.00
70197;PMS5003;57582;-34.876;138.628;2024-03-02T00:42:11;0.00;0.00;0.00
70197;PMS5003;57582;-34.876;138.628;2024-03-02T00:45:12;1.53;0.53;0.00
70197;PMS5003;57582;-34.876;138.628;2024-03-02T00:48:15;1.67;0.90;0.00
70197;PMS5003;57582;-34.876;138.628;2024-03-02T00:51:11;0.93;0.53;0.00
70197;PMS5003;57582;-34.876;138.628;2024-03-02T00:54:13;0.03;0.00;0.00
70197;PMS5003;57582;-34.876;138.628;2024-03-02T00:57:11;0.00;0.00;0.00
70197;PMS5003;57582;-34.876;138.628;2024-03-02T01:00:13;0.57;0.00;0.00
70197;PMS5003;57582;-34.876;138.628;2024-03-02T01:03:12;0.87;0.30;0.00
70197;PMS5003;57582;-34.876;138.628;2024-03-02T01:06:12;0.77;0.17;0.00
70197;PMS5003;57582;-34.876;138.628;2024-03-02T01:09:11;2.73;0.60;0.33
70197;PMS5003;57582;-34.876;138.628;2024-03-02T01:12:14;0.10;0.00;0.00
70197;PMS5003;57582;-34.876;138.628;2024-03-02T01:15:11;0.80;0.40;0.23
70197;PMS5003;57582;-34.876;138.628;2024-03-02T01:18:11;0.67;0.67;0.00
70197;PMS5003;57582;-34.876;138.628;2024-03-02T01:21:12;1.33;0.20;0.00
70197;PMS5003;57582;-34.876;138.628;2024-03-02T01:24:12;1.70;0.97;0.00
70197;PMS5003;57582;-34.876;138.628;2024-03-02T01:27:11;1.93;1.03;0.57
70197;PMS5003;57582;-34.876;138.628;2024-03-02T01:30:11;0.23;0.20;0.07
70197;PMS5003;57582;-34.876;138.628;2024-03-02T01:33:11;1.17;0.73;0.00
70197;PMS5003;57582;-34.876;138.628;2024-03-02T01:36:12;1.00;0.57;0.00
70197;PMS5003;57582;-34.876;138.628;2024-03-02T01:39:11;1.40;0.13;0.00
70197;PMS5003;57582;-34.876;138.628;2024-03-02T01:42:11;1.27;0.53;0.00
70197;PMS5003;57582;-34.876;138.628;2024-03-02T01:45:11;1.60;0.70;0.43
70197;PMS5003;57582;-34.876;138.628;2024-03-02T01:48:13;0.87;0.00;0.00
70197;PMS5003;57582;-34.876;138.628;2024-03-02T01:51:12;0.93;0.27;0.00
70197;PMS5003;57582;-34.876;138.628;2024-03-02T01:54:11;0.30;0.30;0.00
70197;PMS5003;57582;-34.876;138.628;2024-03-02T01:57:12;2.30;0.90;0.03
70197;PMS5003;57582;-34.876;138.628;2024-03-02T02:00:13;1.97;0.43;0.33
70197;PMS5003;57582;-34.876;138.628;2024-03-02T02:03:11;2.03;1.43;0.43
70197;PMS5003;57582;-34.876;138.628;2024-03-02T02:06:12;1.13;0.83;0.13
70197;PMS5003;57582;-34.876;138.628;2024-03-02T02:09:12;0.33;0.00;0.00
70197;PMS5003;57582;-34.876;138.628;2024-03-02T02:12:13;0.20;0.20;0.00
70197;PMS5003;57582;-34.876;138.628;2024-03-02T02:18:12;0.13;0.13;0.00
70197;PMS5003;57582;-34.876;138.628;2024-03-02T02:21:12;0.80;0.43;0.00
70197;PMS5003;57582;-34.876;138.628;2024-03-02T02:24:13;1.13;0.20;0.00
70197;PMS5003;57582;-34.876;138.628;2024-03-02T02:27:12;2.23;1.43;0.43
70197;PMS5003;57582;-34.876;138.628;2024-03-02T02:30:12;2.10;1.00;0.33
70197;PMS5003;57582;-34.876;138.628;2024-03-02T02:33:12;1.30;1.03;0.07
70197;PMS5003;57582;-34.876;138.628;2024-03-02T02:36:12;0.77;0.37;0.03
70197;PMS5003;57582;-34.876;138.628;2024-03-02T02:39:15;1.07;1.07;0.03
70197;PMS5003;57582;-34.876;138.628;2024-03-02T02:42:12;1.17;0.47;0.13
70197;PMS5003;57582;-34.876;138.628;2024-03-02T02:45:12;0.43;0.43;0.07
70197;PMS5003;57582;-34.876;138.628;2024-03-02T02:48:12;1.23;1.23;0.37
70197;PMS5003;57582;-34.876;138.628;2024-03-02T02:51:12;1.97;0.27;0.00
70197;PMS5003;57582;-34.876;138.628;2024-03-02T02:54:12;0.47;0.47;0.07
70197;PMS5003;57582;-34.876;138.628;2024-03-02T02:57:12;0.33;0.00;0.00
70197;PMS5003;57582;-34.876;138.628;2024-03-02T03:00:15;2.07;0.47;0.00
70197;PMS5003;57582;-34.876;138.628;2024-03-02T03:03:12;1.30;0.03;0.00
70197;PMS5003;57582;-34.876;138.628;2024-03-02T03:06:12;0.23;0.03;0.03
70197;PMS5003;57582;-34.876;138.628;2024-03-02T03:09:12;0.40;0.40;0.07
70197;PMS5003;57582;-34.876;138.628;2024-03-02T03:12:12;0.33;0.33;0.00
70197;PMS5003;57582;-34.876;138.628;2024-03-02T03:15:12;0.10;0.10;0.00
70197;PMS5003;57582;-34.876;138.628;2024-03-02T03:18:12;1.73;0.77;0.00
70197;PMS5003;57582;-34.876;138.628;2024-03-02T03:21:12;0.93;0.27;0.00
70197;PMS5003;57582;-34.876;138.628;2024-03-02T03:24:14;1.47;0.23;0.00
70197;PMS5003;57582;-34.876;138.628;2024-03-02T03:27:12;1.13;0.67;0.03
70197;PMS5003;57582;-34.876;138.628;2024-03-02T03:30:12;0.57;0.57;0.00
70197;PMS5003;57582;-34.876;138.628;2024-03-02T03:33:12;0.53;0.23;0.00
70197;PMS5003;57582;-34.876;138.628;2024-03-02T03:36:13;1.47;0.80;0.30
70197;PMS5003;57582;-34.876;138.628;2024-03-02T03:39:12;0.00;0.00;0.00
70197;PMS5003;57582;-34.876;138.628;2024-03-02T03:42:12;0.13;0.13;0.00
70197;PMS5003;57582;-34.876;138.628;2024-03-02T03:45:12;1.20;0.17;0.00
70197;PMS5003;57582;-34.876;138.628;2024-03-02T03:48:12;2.23;0.40;0.00
70197;PMS5003;57582;-34.876;138.628;2024-03-02T03:51:12;0.00;0.00;0.00
70197;PMS5003;57582;-34.876;138.628;2024-03-02T03:54:12;0.70;0.63;0.00
70197;PMS5003;57582;-34.876;138.628;2024-03-02T03:57:12;2.00;0.97;0.00
70197;PMS5003;57582;-34.876;138.628;2024-03-02T04:00:15;1.13;0.37;0.00
70197;PMS5003;57582;-34.876;138.628;2024-03-02T04:03:12;0.93;0.27;0.00
70197;PMS5003;57582;-34.876;138.628;2024-03-02T04:06:12;0.20;0.20;0.03
70197;PMS5003;57582;-34.876;138.628;2024-03-02T04:09:12;1.60;1.23;0.27
70197;PMS5003;57582;-34.876;138.628;2024-03-02T04:12:13;2.43;1.90;0.63
70197;PMS5003;57582;-34.876;138.628;2024-03-02T04:15:12;1.57;0.93;0.00
70197;PMS5003;57582;-34.876;138.628;2024-03-02T04:18:12;1.30;0.97;0.43
70197;PMS5003;57582;-34.876;138.628;2024-03-02T04:21:12;1.33;1.00;0.40
70197;PMS5003;57582;-34.876;138.628;2024-03-02T04:24:12;2.47;0.77;0.53
70197;PMS5003;57582;-34.876;138.628;2024-03-02T04:27:12;3.00;1.50;0.40
70197;PMS5003;57582;-34.876;138.628;2024-03-02T04:30:12;1.93;0.90;0.43
70197;PMS5003;57582;-34.876;138.628;2024-03-02T04:33:12;0.57;0.57;0.53
70197;PMS5003;57582;-34.876;138.628;2024-03-02T04:36:13;1.30;1.10;0.27
70197;PMS5003;57582;-34.876;138.628;2024-03-02T04:39:12;1.03;1.03;0.00
70197;PMS5003;57582;-34.876;138.628;2024-03-02T04:42:12;1.50;1.50;0.03
70197;PMS5003;57582;-34.876;138.628;2024-03-02T04:45:12;0.67;0.67;0.53
70197;PMS5003;57582;-34.876;138.628;2024-03-02T04:48:14;0.60;0.60;0.00
70197;PMS5003;57582;-34.876;138.628;2024-03-02T04:51:12;2.67;1.60;0.23
70197;PMS5003;57582;-34.876;138.628;2024-03-02T04:54:12;1.03;0.40;0.00
70197;PMS5003;57582;-34.876;138.628;2024-03-02T04:57:12;0.90;0.53;0.00
70197;PMS5003;57582;-34.876;138.628;2024-03-02T05:00:16;2.50;1.47;0.33
70197;PMS5003;57582;-34.876;138.628;2024-03-02T05:03:12;1.83;1.17;0.07
70197;PMS5003;57582;-34.876;138.628;2024-03-02T05:06:12;2.73;1.53;1.17
70197;PMS5003;57582;-34.876;138.628;2024-03-02T05:09:12;1.33;1.10;0.27
70197;PMS5003;57582;-34.876;138.628;2024-03-02T05:12:13;3.97;1.67;0.37
70197;PMS5003;57582;-34.876;138.628;2024-03-02T05:15:17;1.03;0.37;0.00
70197;PMS5003;57582;-34.876;138.628;2024-03-02T05:18:12;1.57;1.00;0.73
70197;PMS5003;57582;-34.876;138.628;2024-03-02T05:21:12;1.77;1.10;0.27
70197;PMS5003;57582;-34.876;138.628;2024-03-02T05:24:13;1.13;1.00;0.00
70197;PMS5003;57582;-34.876;138.628;2024-03-02T05:27:12;1.33;0.77;0.17
70197;PMS5003;57582;-34.876;138.628;2024-03-02T05:30:12;3.00;0.70;0.03
70197;PMS5003;57582;-34.876;138.628;2024-03-02T05:33:12;2.27;1.47;0.37
70197;PMS5003;57582;-34.876;138.628;2024-03-02T05:36:14;5.87;2.73;0.70
70197;PMS5003;57582;-34.876;138.628;2024-03-02T05:39:12;4.30;1.93;0.57
70197;PMS5003;57582;-34.876;138.628;2024-03-02T05:42:12;2.43;1.10;0.80
70197;PMS5003;57582;-34.876;138.628;2024-03-02T05:45:12;3.70;1.97;0.50
70197;PMS5003;57582;-34.876;138.628;2024-03-02T05:48:15;2.97;1.67;0.70
70197;PMS5003;57582;-34.876;138.628;2024-03-02T05:51:12;3.73;1.50;0.00
70197;PMS5003;57582;-34.876;138.628;2024-03-02T05:54:12;1.53;1.30;0.37
70197;PMS5003;57582;-34.876;138.628;2024-03-02T05:57:12;2.47;1.70;0.53
70197;PMS5003;57582;-34.876;138.628;2024-03-02T06:00:14;0.87;0.87;0.03
70197;PMS5003;57582;-34.876;138.628;2024-03-02T06:03:12;2.27;1.10;0.53
70197;PMS5003;57582;-34.876;138.628;2024-03-02T06:06:12;3.37;1.23;0.47
70197;PMS5003;57582;-34.876;138.628;2024-03-02T06:09:12;2.93;2.30;0.27
70197;PMS5003;57582;-34.876;138.628;2024-03-02T06:12:16;1.43;0.80;0.80
70197;PMS5003;57582;-34.876;138.628;2024-03-02T06:15:12;1.23;1.23;0.67
70197;PMS5003;57582;-34.876;138.628;2024-03-02T06:18:12;1.33;0.77;0.10
70197;PMS5003;57582;-34.876;138.628;2024-03-02T06:21:12;1.90;1.17;0.20
70197;PMS5003;57582;-34.876;138.628;2024-03-02T06:24:13;1.30;0.93;0.50
70197;PMS5003;57582;-34.876;138.628;2024-03-02T06:27:14;2.23;1.43;0.30
70197;PMS5003;57582;-34.876;138.628;2024-03-02T06:30:12;1.87;0.73;0.13
70197;PMS5003;57582;-34.876;138.628;2024-03-02T06:33:12;0.83;0.40;0.07
70197;PMS5003;57582;-34.876;138.628;2024-03-02T06:36:13;1.43;1.03;0.17
70197;PMS5003;57582;-34.876;138.628;2024-03-02T06:39:12;0.53;0.50;0.00
70197;PMS5003;57582;-34.876;138.628;2024-03-02T06:42:12;1.53;0.97;0.17
70197;PMS5003;57582;-34.876;138.628;2024-03-02T06:45:12;2.60;1.67;0.07
70197;PMS5003;57582;-34.876;138.628;2024-03-02T06:48:13;3.10;1.63;0.83
70197;PMS5003;57582;-34.876;138.628;2024-03-02T06:51:12;2.77;1.20;0.57
70197;PMS5003;57582;-34.876;138.628;2024-03-02T06:54:12;0.97;0.40;0.03
70197;PMS5003;57582;-34.876;138.628;2024-03-02T06:57:12;1.00;1.00;0.00
70197;PMS5003;57582;-34.876;138.628;2024-03-02T07:00:14;0.43;0.43;0.07
70197;PMS5003;57582;-34.876;138.628;2024-03-02T07:03:12;0.00;0.00;0.00
70197;PMS5003;57582;-34.876;138.628;2024-03-02T07:06:12;0.80;0.80;0.30
70197;PMS5003;57582;-34.876;138.628;2024-03-02T07:09:12;1.00;0.70;0.00
70197;PMS5003;57582;-34.876;138.628;2024-03-02T07:12:13;2.00;0.67;0.27
70197;PMS5003;57582;-34.876;138.628;2024-03-02T07:15:12;1.47;0.77;0.00
70197;PMS5003;57582;-34.876;138.628;2024-03-02T07:18:12;1.27;0.63;0.00
70197;PMS5003;57582;-34.876;138.628;2024-03-02T07:21:12;1.70;1.70;0.77
70197;PMS5003;57582;-34.876;138.628;2024-03-02T07:24:16;2.33;1.83;0.90
70197;PMS5003;57582;-34.876;138.628;2024-03-02T07:27:13;1.57;1.00;0.40
70197;PMS5003;57582;-34.876;138.628;2024-03-02T07:30:15;0.23;0.23;0.00
70197;PMS5003;57582;-34.876;138.628;2024-03-02T07:33:12;1.33;0.87;0.00
70197;PMS5003;57582;-34.876;138.628;2024-03-02T07:36:13;1.33;0.63;0.07
70197;PMS5003;57582;-34.876;138.628;2024-03-02T07:39:12;0.90;0.90;0.03
70197;PMS5003;57582;-34.876;138.628;2024-03-02T07:42:12;1.27;1.27;0.00
70197;PMS5003;57582;-34.876;138.628;2024-03-02T07:45:12;1.43;1.43;0.30
70197;PMS5003;57582;-34.876;138.628;2024-03-02T07:48:14;1.50;0.60;0.07
70197;PMS5003;57582;-34.876;138.628;2024-03-02T07:51:19;0.57;0.07;0.00
70197;PMS5003;57582;-34.876;138.628;2024-03-02T07:54:13;2.03;1.43;0.43
70197;PMS5003;57582;-34.876;138.628;2024-03-02T07:57:14;1.17;0.73;0.00
70197;PMS5003;57582;-34.876;138.628;2024-03-02T08:00:15;3.07;0.97;0.00
70197;PMS5003;57582;-34.876;138.628;2024-03-02T08:03:13;3.03;1.03;0.37
70197;PMS5003;57582;-34.876;138.628;2024-03-02T08:06:12;1.03;0.90;0.00
70197;PMS5003;57582;-34.876;138.628;2024-03-02T08:09:13;0.97;0.97;0.30
70197;PMS5003;57582;-34.876;138.628;2024-03-02T08:12:14;1.43;0.70;0.00
70197;PMS5003;57582;-34.876;138.628;2024-03-02T08:15:12;1.57;1.57;0.47
70197;PMS5003;57582;-34.876;138.628;2024-03-02T08:18:12;1.60;0.37;0.07
70197;PMS5003;57582;-34.876;138.628;2024-03-02T08:21:13;2.13;0.50;0.00
70197;PMS5003;57582;-34.876;138.628;2024-03-02T08:24:15;1.40;0.53;0.00
70197;PMS5003;57582;-34.876;138.628;2024-03-02T08:27:12;1.57;0.67;0.00
70197;PMS5003;57582;-34.876;138.628;2024-03-02T08:30:14;0.13;0.13;0.00
70197;PMS5003;57582;-34.876;138.628;2024-03-02T08:33:14;0.93;0.93;0.10
70197;PMS5003;57582;-34.876;138.628;2024-03-02T08:36:13;0.80;0.80;0.00
70197;PMS5003;57582;-34.876;138.628;2024-03-02T08:39:13;1.07;1.07;0.03
70197;PMS5003;57582;-34.876;138.628;2024-03-02T08:42:12;2.03;0.97;0.17
70197;PMS5003;57582;-34.876;138.628;2024-03-02T08:45:13;1.77;0.80;0.00
70197;PMS5003;57582;-34.876;138.628;2024-03-02T08:48:13;1.20;0.43;0.00
70197;PMS5003;57582;-34.876;138.628;2024-03-02T08:51:12;1.83;1.63;0.63
70197;PMS5003;57582;-34.876;138.628;2024-03-02T08:54:12;2.47;0.83;0.10
70197;PMS5003;57582;-34.876;138.628;2024-03-02T08:57:13;2.30;1.07;0.00
70197;PMS5003;57582;-34.876;138.628;2024-03-02T09:00:15;0.70;0.70;0.40
70197;PMS5003;57582;-34.876;138.628;2024-03-02T09:03:12;1.87;1.10;0.47
70197;PMS5003;57582;-34.876;138.628;2024-03-02T09:06:13;1.50;0.77;0.00
70197;PMS5003;57582;-34.876;138.628;2024-03-02T09:09:14;1.17;0.63;0.20
70197;PMS5003;57582;-34.876;138.628;2024-03-02T09:12:13;1.07;1.07;0.47
70197;PMS5003;57582;-34.876;138.628;2024-03-02T09:15:13;2.50;1.07;0.17
70197;PMS5003;57582;-34.876;138.628;2024-03-02T09:18:13;2.37;1.73;0.37
70197;PMS5003;57582;-34.876;138.628;2024-03-02T09:21:13;3.50;2.20;0.40
70197;PMS5003;57582;-34.876;138.628;2024-03-02T09:24:13;2.83;1.73;0.60
70197;PMS5003;57582;-34.876;138.628;2024-03-02T09:27:12;3.90;1.83;0.43
70197;PMS5003;57582;-34.876;138.628;2024-03-02T09:30:12;1.20;1.20;0.70
70197;PMS5003;57582;-34.876;138.628;2024-03-02T09:33:13;0.87;0.87;0.00
70197;PMS5003;57582;-34.876;138.628;2024-03-02T09:39:12;2.07;1.33;0.73
70197;PMS5003;57582;-34.876;138.628;2024-03-02T09:42:13;3.57;2.20;0.83
70197;PMS5003;57582;-34.876;138.628;2024-03-02T09:45:13;1.77;1.77;0.90
70197;PMS5003;57582;-34.876;138.628;2024-03-02T09:48:13;1.80;1.17;0.30
70197;PMS5003;57582;-34.876;138.628;2024-03-02T09:51:13;3.20;2.13;0.60
70197;PMS5003;57582;-34.876;138.628;2024-03-02T09:54:13;2.97;1.67;0.60
70197;PMS5003;57582;-34.876;138.628;2024-03-02T09:57:14;2.27;1.97;0.83
70197;PMS5003;57582;-34.876;138.628;2024-03-02T10:00:17;6.43;3.53;0.70
70197;PMS5003;57582;-34.876;138.628;2024-03-02T10:03:13;5.77;3.03;1.70
70197;PMS5003;57582;-34.876;138.628;2024-03-02T10:06:22;2.50;2.30;0.83
70197;PMS5003;57582;-34.876;138.628;2024-03-02T10:09:27;3.63;1.30;0.37
70197;PMS5003;57582;-34.876;138.628;2024-03-02T10:12:16;2.93;2.40;0.80
70197;PMS5003;57582;-34.876;138.628;2024-03-02T10:15:12;2.03;1.33;0.93
70197;PMS5003;57582;-34.876;138.628;2024-03-02T10:18:13;2.33;2.00;0.83
70197;PMS5003;57582;-34.876;138.628;2024-03-02T10:21:15;2.70;2.17;0.77
70197;PMS5003;57582;-34.876;138.628;2024-03-02T10:24:13;0.90;0.83;0.40
70197;PMS5003;57582;-34.876;138.628;2024-03-02T10:27:17;5.57;2.97;0.87
70197;PMS5003;57582;-34.876;138.628;2024-03-02T10:30:13;3.20;1.70;0.97
70197;PMS5003;57582;-34.876;138.628;2024-03-02T10:33:13;4.33;2.67;0.90
70197;PMS5003;57582;-34.876;138.628;2024-03-02T10:36:13;4.87;2.50;0.27
70197;PMS5003;57582;-34.876;138.628;2024-03-02T10:39:14;3.23;2.20;0.03
70197;PMS5003;57582;-34.876;138.628;2024-03-02T10:42:14;6.27;3.37;1.97
70197;PMS5003;57582;-34.876;138.628;2024-03-02T10:45:16;2.70;2.00;1.20
70197;PMS5003;57582;-34.876;138.628;2024-03-02T10:48:16;5.43;2.70;0.67
70197;PMS5003;57582;-34.876;138.628;2024-03-02T10:51:13;3.97;3.37;1.27
70197;PMS5003;57582;-34.876;138.628;2024-03-02T10:54:12;2.97;2.23;0.97
70197;PMS5003;57582;-34.876;138.628;2024-03-02T10:57:14;6.80;4.03;0.80
70197;PMS5003;57582;-34.876;138.628;2024-03-02T11:00:13;4.20;1.50;1.07
70197;PMS5003;57582;-34.876;138.628;2024-03-02T11:03:13;4.03;1.93;0.73
70197;PMS5003;57582;-34.876;138.628;2024-03-02T11:06:13;4.33;2.93;1.03
70197;PMS5003;57582;-34.876;138.628;2024-03-02T11:09:14;5.03;2.60;1.00
70197;PMS5003;57582;-34.876;138.628;2024-03-02T11:15:17;4.47;1.97;0.97
70197;PMS5003;57582;-34.876;138.628;2024-03-02T11:18:14;4.43;1.97;0.47
70197;PMS5003;57582;-34.876;138.628;2024-03-02T11:21:13;2.70;1.63;0.00
70197;PMS5003;57582;-34.876;138.628;2024-03-02T11:27:13;3.60;2.70;1.07
70197;PMS5003;57582;-34.876;138.628;2024-03-02T11:33:14;3.37;2.20;0.97
70197;PMS5003;57582;-34.876;138.628;2024-03-02T11:36:16;3.03;2.27;0.67
70197;PMS5003;57582;-34.876;138.628;2024-03-02T11:39:12;3.83;2.80;1.50
70197;PMS5003;57582;-34.876;138.628;2024-03-02T11:42:13;6.20;3.87;1.47
70197;PMS5003;57582;-34.876;138.628;2024-03-02T11:45:17;4.17;3.93;1.00
70197;PMS5003;57582;-34.876;138.628;2024-03-02T11:48:15;3.47;2.33;0.43
70197;PMS5003;57582;-34.876;138.628;2024-03-02T11:51:12;3.93;2.67;0.20
70197;PMS5003;57582;-34.876;138.628;2024-03-02T11:54:12;5.10;3.17;0.93
70197;PMS5003;57582;-34.876;138.628;2024-03-02T11:57:16;1.97;1.97;0.50
70197;PMS5003;57582;-34.876;138.628;2024-03-02T12:00:18;1.63;1.60;0.40
70197;PMS5003;57582;-34.876;138.628;2024-03-02T12:03:13;3.73;1.73;0.77
70197;PMS5003;57582;-34.876;138.628;2024-03-02T12:06:13;3.30;2.37;0.77
70197;PMS5003;57582;-34.876;138.628;2024-03-02T12:09:13;5.73;4.80;1.13
70197;PMS5003;57582;-34.876;138.628;2024-03-02T12:12:13;6.57;3.50;0.77
70197;PMS5003;57582;-34.876;138.628;2024-03-02T12:15:13;4.90;3.53;1.20
70197;PMS5003;57582;-34.876;138.628;2024-03-02T12:18:13;4.13;2.53;0.57
70197;PMS5003;57582;-34.876;138.628;2024-03-02T12:21:13;5.17;3.57;0.67
70197;PMS5003;57582;-34.876;138.628;2024-03-02T12:24:17;4.17;2.37;0.23
70197;PMS5003;57582;-34.876;138.628;2024-03-02T12:27:15;2.43;1.83;0.47
70197;PMS5003;57582;-34.876;138.628;2024-03-02T12:30:13;2.70;2.70;0.33
70197;PMS5003;57582;-34.876;138.628;2024-03-02T12:33:13;4.73;2.77;0.47
70197;PMS5003;57582;-34.876;138.628;2024-03-02T12:36:14;3.17;1.63;0.30
70197;PMS5003;57582;-34.876;138.628;2024-03-02T12:39:13;6.63;4.57;1.60
70197;PMS5003;57582;-34.876;138.628;2024-03-02T12:42:13;5.90;4.90;1.27
70197;PMS5003;57582;-34.876;138.628;2024-03-02T12:45:15;2.63;2.13;0.90
70197;PMS5003;57582;-34.876;138.628;2024-03-02T12:48:14;4.53;2.53;0.57
70197;PMS5003;57582;-34.876;138.628;2024-03-02T12:51:13;3.90;2.53;0.97
70197;PMS5003;57582;-34.876;138.628;2024-03-02T12:54:14;2.97;2.07;0.47
70197;PMS5003;57582;-34.876;138.628;2024-03-02T12:57:17;3.23;1.87;0.17
70197;PMS5003;57582;-34.876;138.628;2024-03-02T13:00:13;6.33;3.13;1.00
70197;PMS5003;57582;-34.876;138.628;2024-03-02T13:03:13;5.30;2.67;0.77
70197;PMS5003;57582;-34.876;138.628;2024-03-02T13:06:13;4.37;2.73;1.00
70197;PMS5003;57582;-34.876;138.628;2024-03-02T13:09:13;4.77;2.40;1.03
70197;PMS5003;57582;-34.876;138.628;2024-03-02T13:12:15;3.33;2.50;1.10
70197;PMS5003;57582;-34.876;138.628;2024-03-02T13:15:13;4.50;3.40;1.60
70197;PMS5003;57582;-34.876;138.628;2024-03-02T13:18:13;4.67;2.80;0.67
70197;PMS5003;57582;-34.876;138.628;2024-03-02T13:21:15;4.13;2.17;0.77
70197;PMS5003;57582;-34.876;138.628;2024-03-02T13:24:13;3.97;2.33;0.73
70197;PMS5003;57582;-34.876;138.628;2024-03-02T13:27:13;4.33;3.27;0.73
70197;PMS5003;57582;-34.876;138.628;2024-03-02T13:30:13;6.30;2.20;0.90
70197;PMS5003;57582;-34.876;138.628;2024-03-02T13:33:15;3.43;2.40;0.70
70197;PMS5003;57582;-34.876;138.628;2024-03-02T13:36:15;2.53;1.67;0.90
70197;PMS5003;57582;-34.876;138.628;2024-03-02T13:39:13;5.50;2.03;0.47
70197;PMS5003;57582;-34.876;138.628;2024-03-02T13:42:13;3.70;2.47;0.97
70197;PMS5003;57582;-34.876;138.628;2024-03-02T13:45:15;2.57;1.87;0.13
70197;PMS5003;57582;-34.876;138.628;2024-03-02T13:48:15;3.27;1.60;0.50
70197;PMS5003;57582;-34.876;138.628;2024-03-02T13:51:13;3.33;1.87;0.80
70197;PMS5003;57582;-34.876;138.628;2024-03-02T13:54:13;6.23;1.80;0.57
70197;PMS5003;57582;-34.876;138.628;2024-03-02T13:57:16;3.40;1.97;0.00
70197;PMS5003;57582;-34.876;138.628;2024-03-02T14:00:18;2.13;1.53;0.80
70197;PMS5003;57582;-34.876;138.628;2024-03-02T14:03:13;3.17;1.93;0.37
70197;PMS5003;57582;-34.876;138.628;2024-03-02T14:06:13;2.87;1.63;0.13
70197;PMS5003;57582;-34.876;138.628;2024-03-02T14:09:13;3.80;1.37;0.80
70197;PMS5003;57582;-34.876;138.628;2024-03-02T14:12:13;3.90;2.57;0.43
70197;PMS5003;57582;-34.876;138.628;2024-03-02T14:15:13;6.13;2.00;0.50
70197;PMS5003;57582;-34.876;138.628;2024-03-02T14:18:13;4.27;2.73;0.67
70197;PMS5003;57582;-34.876;138.628;2024-03-02T14:21:13;1.90;1.90;0.17
70197;PMS5003;57582;-34.876;138.628;2024-03-02T14:24:15;2.60;1.27;0.27
70197;PMS5003;57582;-34.876;138.628;2024-03-02T14:27:13;6.53;2.60;1.13
70197;PMS5003;57582;-34.876;138.628;2024-03-02T14:30:13;3.37;2.70;1.00
70197;PMS5003;57582;-34.876;138.628;2024-03-02T14:33:13;3.93;2.37;0.90
70197;PMS5003;57582;-34.876;138.628;2024-03-02T14:36:18;5.10;2.63;0.80
70197;PMS5003;57582;-34.876;138.628;2024-03-02T14:39:13;6.20;3.20;0.80
70197;PMS5003;57582;-34.876;138.628;2024-03-02T14:42:13;3.27;2.37;0.57
70197;PMS5003;57582;-34.876;138.628;2024-03-02T14:45:13;2.13;1.77;0.10
70197;PMS5003;57582;-34.876;138.628;2024-03-02T14:48:14;2.43;1.90;0.70
70197;PMS5003;57582;-34.876;138.628;2024-03-02T14:51:13;4.60;2.70;0.30
70197;PMS5003;57582;-34.876;138.628;2024-03-02T14:54:13;3.83;2.20;0.67
70197;PMS5003;57582;-34.876;138.628;2024-03-02T14:57:13;5.47;3.23;0.97
70197;PMS5003;57582;-34.876;138.628;2024-03-02T15:00:17;3.77;2.10;0.27
70197;PMS5003;57582;-34.876;138.628;2024-03-02T15:03:13;3.37;1.60;0.50
70197;PMS5003;57582;-34.876;138.628;2024-03-02T15:06:13;4.73;1.27;0.00
70197;PMS5003;57582;-34.876;138.628;2024-03-02T15:09:15;3.43;2.03;0.67
70197;PMS5003;57582;-34.876;138.628;2024-03-02T15:12:13;2.73;1.40;0.30
70197;PMS5003;57582;-34.876;138.628;2024-03-02T15:15:13;2.67;1.80;0.17
70197;PMS5003;57582;-34.876;138.628;2024-03-02T15:18:13;4.10;2.93;0.13
70197;PMS5003;57582;-34.876;138.628;2024-03-02T15:21:13;3.53;2.20;0.63
70197;PMS5003;57582;-34.876;138.628;2024-03-02T15:24:14;3.20;2.03;0.60
70197;PMS5003;57582;-34.876;138.628;2024-03-02T15:27:13;3.30;1.73;0.37
70197;PMS5003;57582;-34.876;138.628;2024-03-02T15:30:13;2.80;0.93;0.20
70197;PMS5003;57582;-34.876;138.628;2024-03-02T15:33:13;4.10;3.30;0.83
70197;PMS5003;57582;-34.876;138.628;2024-03-02T15:36:13;5.00;2.93;0.93
70197;PMS5003;57582;-34.876;138.628;2024-03-02T15:39:13;2.33;1.70;0.27
70197;PMS5003;57582;-34.876;138.628;2024-03-02T15:42:13;4.73;2.37;0.20
70197;PMS5003;57582;-34.876;138.628;2024-03-02T15:45:13;4.90;2.97;0.87
70197;PMS5003;57582;-34.876;138.628;2024-03-02T15:48:15;4.80;3.10;0.93
70197;PMS5003;57582;-34.876;138.628;2024-03-02T15:51:13;4.10;2.03;1.00
70197;PMS5003;57582;-34.876;138.628;2024-03-02T15:54:13;3.97;1.27;0.40
70197;PMS5003;57582;-34.876;138.628;2024-03-02T15:57:13;3.90;2.53;0.67
70197;PMS5003;57582;-34.876;138.628;2024-03-02T16:00:16;3.87;1.97;0.47
70197;PMS5003;57582;-34.876;138.628;2024-03-02T16:03:13;3.73;2.30;0.40
70197;PMS5003;57582;-34.876;138.628;2024-03-02T16:06:13;4.20;2.17;0.40
70197;PMS5003;57582;-34.876;138.628;2024-03-02T16:09:15;4.90;2.50;0.80
70197;PMS5003;57582;-34.876;138.628;2024-03-02T16:12:16;5.83;3.00;1.00
70197;PMS5003;57582;-34.876;138.628;2024-03-02T16:15:13;3.53;2.37;0.17
70197;PMS5003;57582;-34.876;138.628;2024-03-02T16:18:13;5.30;3.27;1.00
70197;PMS5003;57582;-34.876;138.628;2024-03-02T16:21:13;5.10;2.53;0.83
70197;PMS5003;57582;-34.876;138.628;2024-03-02T16:24:14;3.73;3.27;0.77
70197;PMS5003;57582;-34.876;138.628;2024-03-02T16:27:13;5.23;3.27;0.83
70197;PMS5003;57582;-34.876;138.628;2024-03-02T16:30:13;3.13;0.80;0.40
70197;PMS5003;57582;-34.876;138.628;2024-03-02T16:33:14;4.80;1.67;0.73
70197;PMS5003;57582;-34.876;138.628;2024-03-02T16:36:14;6.40;2.70;0.73
70197;PMS5003;57582;-34.876;138.628;2024-03-02T16:39:14;4.57;2.43;0.70
70197;PMS5003;57582;-34.876;138.628;2024-03-02T16:42:13;3.23;1.53;0.33
70197;PMS5003;57582;-34.876;138.628;2024-03-02T16:45:13;5.63;2.83;0.40
70197;PMS5003;57582;-34.876;138.628;2024-03-02T16:48:15;4.70;1.67;0.33
70197;PMS5003;57582;-34.876;138.628;2024-03-02T16:51:13;4.60;2.07;0.90
70197;PMS5003;57582;-34.876;138.628;2024-03-02T16:54:13;4.57;3.50;0.83
70197;PMS5003;57582;-34.876;138.628;2024-03-02T16:57:13;7.00;4.13;1.27
70197;PMS5003;57582;-34.876;138.628;2024-03-02T17:00:15;3.13;2.93;0.97
70197;PMS5003;57582;-34.876;138.628;2024-03-02T17:03:13;5.23;3.03;0.97
70197;PMS5003;57582;-34.876;138.628;2024-03-02T17:06:13;2.33;1.43;0.77
70197;PMS5003;57582;-34.876;138.628;2024-03-02T17:09:13;2.80;1.77;1.07